createdAt,value
2019-02-15T00:01:43.984Z,27.57
2019-02-15T00:04:14.910Z,24.83
2019-02-15T00:06:43.885Z,23.32
2019-02-15T00:09:12.846Z,25.52
2019-02-15T00:11:41.895Z,28.92
2019-02-15T00:14:10.859Z,26.37
2019-02-15T00:16:39.901Z,24.55
2019-02-15T00:19:12.924Z,24.52
2019-02-15T00:21:42.067Z,28.00
2019-02-15T00:24:11.027Z,25.57
2019-02-15T00:26:41.254Z,25.95
2019-02-15T00:29:14.087Z,26.30
2019-02-15T00:31:47.051Z,24.05
2019-02-15T00:34:16.048Z,29.87
2019-02-15T00:36:48.246Z,23.73
2019-02-15T00:39:23.458Z,25.27
2019-02-15T00:42:06.853Z,23.80
2019-02-15T00:44:35.831Z,21.93
2019-02-15T00:47:09.334Z,24.35
2019-02-15T00:49:39.933Z,23.70
2019-02-15T00:52:13.523Z,28.95
2019-02-15T00:54:50.974Z,25.25
2019-02-15T00:57:21.994Z,27.05
2019-02-15T00:59:58.571Z,23.10
2019-02-15T01:02:44.269Z,22.07
2019-02-15T01:05:26.685Z,23.95
2019-02-15T01:08:03.206Z,27.73
2019-02-15T01:10:33.813Z,23.90
2019-02-15T01:13:07.531Z,26.07
2019-02-15T01:15:39.373Z,24.15
2019-02-15T01:18:08.334Z,23.80
2019-02-15T01:20:37.351Z,22.65
2019-02-15T01:23:06.346Z,25.12
2019-02-15T01:29:20.178Z,25.25
2019-02-15T01:31:53.017Z,26.02
2019-02-15T01:34:24.115Z,22.22
2019-02-15T01:37:00.838Z,23.73
2019-02-15T01:39:32.878Z,23.60
2019-02-15T01:45:23.072Z,23.15
2019-02-15T01:47:52.090Z,22.65
2019-02-15T01:50:21.167Z,21.07
2019-02-15T01:52:50.171Z,24.25
2019-02-15T01:55:19.173Z,27.05
2019-02-15T01:57:50.398Z,24.43
2019-02-15T02:00:20.653Z,24.77
2019-02-15T02:02:51.221Z,23.42
2019-02-15T02:05:20.182Z,25.12
2019-02-15T02:07:52.342Z,22.07
2019-02-15T02:10:21.576Z,23.95
2019-02-15T02:12:50.770Z,23.30
2019-02-15T02:15:19.786Z,24.10
2019-02-15T02:17:48.755Z,21.87
2019-02-15T02:20:23.174Z,24.02
2019-02-15T02:25:30.022Z,21.15
2019-02-15T02:28:03.718Z,24.37
2019-02-15T02:30:35.313Z,27.15
2019-02-15T02:33:04.399Z,25.62
2019-02-15T02:35:33.362Z,24.20
2019-02-15T02:38:04.090Z,24.85
2019-02-15T02:40:33.064Z,24.25
2019-02-15T02:43:02.076Z,23.22
2019-02-15T02:45:33.322Z,26.62
2019-02-15T02:48:03.842Z,25.08
2019-02-15T02:50:32.798Z,22.15
2019-02-15T02:53:01.767Z,26.50
2019-02-15T02:55:30.794Z,23.12
2019-02-15T02:57:59.761Z,23.73
2019-02-15T03:00:33.744Z,24.95
2019-02-15T03:03:02.474Z,25.02
2019-02-15T03:05:32.296Z,20.97
2019-02-15T03:08:01.290Z,22.85
2019-02-15T03:10:30.317Z,26.12
2019-02-15T03:13:01.454Z,27.93
2019-02-15T03:15:30.411Z,23.20
2019-02-15T03:17:59.438Z,25.85
2019-02-15T03:20:31.259Z,24.55
2019-02-15T03:22:59.101Z,23.92
2019-02-15T03:25:29.423Z,25.30
2019-02-15T03:27:58.451Z,23.42
2019-02-15T03:30:28.960Z,23.73
2019-02-15T03:32:57.930Z,22.93
2019-02-15T03:35:26.909Z,23.62
2019-02-15T03:38:03.270Z,22.90
2019-02-15T03:40:33.966Z,23.85
2019-02-15T03:43:03.129Z,23.40
2019-02-15T03:45:32.114Z,24.95
2019-02-15T03:48:01.162Z,24.92
2019-02-15T03:50:30.233Z,24.77
2019-02-15T03:52:59.373Z,21.68
2019-02-15T03:55:28.386Z,23.92
2019-02-15T03:57:57.353Z,24.47
2019-02-15T04:00:26.336Z,23.32
2019-02-15T04:02:55.285Z,24.57
2019-02-15T04:05:26.851Z,24.92
2019-02-15T04:07:55.823Z,22.20
2019-02-15T04:10:25.365Z,25.32
2019-02-15T04:12:57.246Z,25.37
2019-02-15T04:15:26.297Z,23.62
2019-02-15T04:17:57.431Z,27.10
2019-02-15T04:20:29.104Z,21.87
2019-02-15T04:22:58.070Z,23.20
2019-02-15T04:25:29.351Z,24.50
2019-02-15T04:27:57.704Z,23.85
2019-02-15T04:30:29.410Z,22.65
2019-02-15T04:32:58.946Z,27.02
2019-02-15T04:35:27.979Z,20.43
2019-02-15T04:37:58.505Z,22.02
2019-02-15T04:40:33.641Z,24.92
2019-02-15T04:43:02.641Z,23.40
2019-02-15T04:45:33.950Z,23.70
2019-02-15T04:48:09.544Z,23.80
2019-02-15T04:50:40.330Z,23.75
2019-02-15T04:53:09.300Z,22.82
2019-02-15T04:55:41.871Z,23.85
2019-02-15T04:58:10.915Z,23.85
2019-02-15T05:00:39.987Z,24.87
2019-02-15T05:03:08.974Z,25.60
2019-02-15T05:05:38.007Z,24.30
2019-02-15T05:08:07.035Z,20.80
2019-02-15T05:10:36.007Z,20.10
2019-02-15T05:13:08.398Z,20.55
2019-02-15T05:15:43.470Z,22.85
2019-02-15T05:18:12.450Z,23.95
2019-02-15T05:20:41.418Z,23.52
2019-02-15T05:25:42.506Z,20.77
2019-02-15T05:28:14.344Z,22.42
2019-02-15T05:30:43.406Z,24.20
2019-02-15T05:33:12.479Z,21.48
2019-02-15T05:35:41.432Z,20.82
2019-02-15T05:38:14.180Z,24.35
2019-02-15T05:40:43.206Z,20.40
2019-02-15T05:43:12.247Z,25.20
2019-02-15T05:45:41.422Z,23.47
2019-02-15T05:48:10.381Z,20.97
2019-02-15T05:50:39.353Z,21.45
2019-02-15T05:53:10.925Z,22.62
2019-02-15T05:55:39.907Z,21.07
2019-02-15T05:58:08.984Z,22.37
2019-02-15T06:00:37.977Z,20.10
2019-02-15T06:03:06.924Z,20.27
2019-02-15T06:05:35.900Z,21.25
2019-02-15T06:08:07.729Z,25.20
2019-02-15T06:10:37.032Z,19.57
2019-02-15T06:13:08.395Z,22.48
2019-02-15T06:15:37.435Z,20.60
2019-02-15T06:18:06.429Z,21.57
2019-02-15T06:20:35.389Z,22.30
2019-02-15T06:23:06.952Z,22.93
2019-02-15T06:25:35.921Z,20.92
2019-02-15T06:28:06.121Z,21.25
2019-02-15T06:30:38.331Z,23.32
2019-02-15T06:33:09.760Z,21.17
2019-02-15T06:35:45.711Z,20.17
2019-02-15T06:38:15.759Z,21.80
2019-02-15T06:40:52.508Z,22.10
2019-02-15T06:43:21.513Z,22.65
2019-02-15T06:45:51.161Z,19.62
2019-02-15T06:48:21.793Z,23.95
2019-02-15T06:50:55.694Z,21.40
2019-02-15T06:53:27.159Z,24.50
2019-02-15T06:56:00.059Z,18.17
2019-02-15T06:58:29.019Z,22.40
2019-02-15T07:01:05.028Z,20.05
2019-02-15T07:03:40.073Z,26.17
2019-02-15T07:06:09.558Z,23.07
2019-02-15T07:08:38.865Z,21.57
2019-02-15T07:11:09.725Z,26.35
2019-02-15T07:13:38.661Z,22.57
2019-02-15T07:16:07.639Z,23.10
2019-02-15T07:18:38.247Z,20.25
2019-02-15T07:21:08.516Z,21.05
2019-02-15T07:23:37.477Z,19.25
2019-02-15T07:26:06.712Z,19.25
2019-02-15T07:28:35.641Z,21.97
2019-02-15T07:31:04.617Z,19.77
2019-02-15T07:33:33.672Z,21.87
2019-02-15T07:36:02.646Z,19.62
2019-02-15T07:38:31.599Z,19.60
2019-02-15T07:41:05.153Z,17.45
2019-02-15T07:43:34.268Z,19.35
2019-02-15T07:46:04.924Z,26.57
2019-02-15T07:48:33.894Z,18.32
2019-02-15T07:51:09.369Z,22.35
2019-02-15T07:53:33.544Z,19.12
2019-02-15T07:56:05.803Z,20.20
2019-02-15T07:58:37.378Z,18.12
2019-02-15T08:01:06.360Z,21.20
2019-02-15T08:03:37.667Z,19.65
2019-02-15T08:06:06.008Z,19.75
2019-02-15T08:08:35.588Z,17.07
2019-02-15T08:11:04.566Z,17.35
2019-02-15T08:13:33.546Z,18.90
2019-02-15T08:16:03.106Z,18.95
2019-02-15T08:18:32.183Z,21.48
2019-02-15T08:21:01.187Z,17.48
2019-02-15T08:23:30.300Z,19.48
2019-02-15T08:25:59.271Z,18.02
2019-02-15T08:28:29.129Z,19.85
2019-02-15T08:30:58.111Z,17.42
2019-02-15T08:33:29.414Z,17.55
2019-02-15T08:35:58.494Z,18.25
2019-02-15T08:38:27.661Z,14.95
2019-02-15T08:40:58.449Z,19.70
2019-02-15T08:43:30.326Z,16.45
2019-02-15T08:46:02.763Z,20.88
2019-02-15T08:48:31.200Z,16.82
2019-02-15T08:53:28.635Z,14.03
2019-02-15T08:55:57.601Z,17.07
2019-02-15T08:58:26.580Z,15.75
2019-02-15T09:00:55.585Z,15.80
2019-02-15T09:03:24.613Z,18.85
2019-02-15T09:05:55.107Z,16.37
2019-02-15T09:08:24.083Z,17.42
2019-02-15T09:10:55.507Z,15.10
2019-02-15T09:13:25.445Z,17.80
2019-02-15T09:15:55.853Z,18.57
2019-02-15T09:18:24.845Z,18.05
2019-02-15T09:20:55.586Z,18.05
2019-02-15T09:23:25.791Z,15.98
2019-02-15T09:25:56.395Z,15.72
2019-02-15T09:28:39.019Z,15.43
2019-02-15T09:31:08.003Z,14.90
2019-02-15T09:33:37.009Z,14.85
2019-02-15T09:36:12.087Z,16.27
2019-02-15T09:38:41.163Z,15.65
2019-02-15T09:41:10.110Z,15.20
2019-02-15T09:43:43.839Z,14.35
2019-02-15T09:46:20.061Z,14.55
2019-02-15T09:48:43.498Z,14.47
2019-02-15T09:51:12.603Z,15.83
2019-02-15T09:53:43.049Z,15.03
2019-02-15T09:56:12.005Z,15.38
2019-02-15T09:58:42.799Z,14.23
2019-02-15T10:01:11.749Z,15.75
2019-02-15T10:03:41.304Z,15.28
2019-02-15T10:06:10.260Z,17.55
2019-02-15T10:08:41.289Z,14.10
2019-02-15T10:11:10.246Z,16.62
2019-02-15T10:13:44.519Z,18.42
2019-02-15T10:16:13.476Z,16.80
2019-02-15T10:18:42.513Z,17.65
2019-02-15T10:21:11.466Z,15.35
2019-02-15T10:23:40.427Z,15.00
2019-02-15T10:26:11.035Z,15.80
2019-02-15T10:28:45.309Z,19.00
2019-02-15T10:31:16.433Z,13.93
2019-02-15T10:33:57.340Z,17.90
2019-02-15T10:36:26.298Z,19.87
2019-02-15T10:38:55.284Z,16.65
2019-02-15T10:41:27.508Z,16.70
2019-02-15T10:43:56.458Z,15.15
2019-02-15T10:46:25.438Z,29.40
2019-02-15T10:48:56.978Z,19.50
2019-02-15T10:51:25.950Z,17.07
2019-02-15T10:53:54.910Z,17.92
2019-02-15T10:56:27.990Z,17.95
2019-02-15T10:58:58.142Z,16.12
2019-02-15T11:03:56.946Z,15.72
2019-02-15T11:06:27.950Z,18.70
2019-02-15T11:09:00.935Z,18.20
2019-02-15T11:11:31.466Z,16.35
2019-02-15T11:14:03.978Z,18.20
2019-02-15T11:16:33.715Z,17.92
2019-02-15T11:21:32.954Z,16.93
2019-02-15T11:24:02.240Z,17.15
2019-02-15T11:26:36.430Z,17.55
2019-02-15T11:29:05.122Z,14.05
2019-02-15T11:31:34.151Z,13.00
2019-02-15T11:34:03.457Z,14.75
2019-02-15T11:36:33.965Z,15.20
2019-02-15T11:39:08.273Z,16.77
2019-02-15T11:41:39.786Z,14.18
2019-02-15T11:44:08.758Z,15.08
2019-02-15T11:46:37.770Z,14.15
2019-02-15T11:49:08.623Z,17.60
2019-02-15T11:51:42.031Z,13.03
2019-02-15T11:54:11.004Z,15.28
2019-02-15T11:56:39.975Z,15.10
2019-02-15T11:59:13.386Z,14.90
2019-02-15T12:01:39.713Z,13.70
2019-02-15T12:04:15.004Z,16.82
2019-02-15T12:06:45.667Z,16.93
2019-02-15T12:09:21.721Z,16.67
2019-02-15T12:11:50.745Z,15.65
2019-02-15T12:14:27.514Z,17.37
2019-02-15T12:17:05.246Z,13.45
2019-02-15T12:19:31.851Z,15.03
2019-02-15T12:22:02.527Z,13.28
2019-02-15T12:24:31.479Z,15.10
2019-02-15T12:27:00.454Z,16.57
2019-02-15T12:29:32.429Z,16.07
2019-02-15T12:32:02.859Z,16.93
2019-02-15T12:34:32.602Z,15.25
2019-02-15T12:37:02.755Z,14.98
2019-02-15T12:39:31.698Z,13.80
2019-02-15T12:42:00.673Z,16.32
2019-02-15T12:44:30.628Z,16.52
2019-02-15T12:47:01.301Z,13.98
2019-02-15T12:49:33.366Z,14.15
2019-02-15T12:52:02.431Z,13.98
2019-02-15T12:57:01.300Z,19.25
2019-02-15T12:59:30.440Z,14.45
2019-02-15T13:02:04.098Z,14.50
2019-02-15T13:04:36.202Z,14.00
2019-02-15T13:07:05.158Z,14.07
2019-02-15T13:09:34.142Z,13.70
2019-02-15T13:12:03.154Z,14.10
2019-02-15T13:14:32.252Z,11.93
2019-02-15T13:17:03.114Z,15.13
2019-02-15T13:19:31.862Z,15.03
2019-02-15T13:22:00.970Z,13.95
2019-02-15T13:24:31.910Z,13.38
2019-02-15T13:27:03.774Z,14.80
2019-02-15T13:29:32.786Z,14.80
2019-02-15T13:32:06.891Z,15.08
2019-02-15T13:34:38.084Z,13.88
2019-02-15T13:37:07.117Z,12.58
2019-02-15T13:39:44.029Z,11.78
2019-02-15T13:42:13.196Z,13.00
2019-02-15T13:44:44.874Z,13.50
2019-02-15T13:47:13.911Z,14.05
2019-02-15T13:49:42.872Z,16.30
2019-02-15T13:52:11.913Z,19.30
2019-02-15T13:54:42.595Z,16.05
2019-02-15T13:57:12.667Z,13.17
2019-02-15T13:59:41.643Z,15.25
2019-02-15T14:02:10.654Z,14.33
2019-02-15T14:04:39.763Z,15.25
2019-02-15T14:07:13.453Z,13.80
2019-02-15T14:09:44.727Z,12.35
2019-02-15T14:12:13.716Z,14.37
2019-02-15T14:14:42.769Z,15.55
2019-02-15T14:17:12.791Z,13.85
2019-02-15T14:19:44.325Z,15.43
2019-02-15T14:22:13.370Z,16.00
2019-02-15T14:24:42.393Z,19.57
2019-02-15T14:27:12.661Z,13.70
2019-02-15T14:29:41.733Z,13.35
2019-02-15T14:32:12.797Z,14.87
2019-02-15T14:34:41.821Z,14.00
2019-02-15T14:37:12.550Z,12.97
2019-02-15T14:39:43.033Z,14.10
2019-02-15T14:42:16.635Z,14.15
2019-02-15T14:44:46.269Z,13.20
2019-02-15T14:47:15.279Z,17.17
2019-02-15T14:49:47.083Z,16.42
2019-02-15T14:52:16.057Z,14.15
2019-02-15T14:54:45.321Z,14.67
2019-02-15T14:57:14.305Z,16.42
2019-02-15T14:59:43.319Z,16.80
2019-02-15T15:02:12.254Z,17.50
2019-02-15T15:04:44.999Z,20.47
2019-02-15T15:07:14.000Z,14.83
2019-02-15T15:09:43.313Z,13.63
2019-02-15T15:12:13.794Z,14.60
2019-02-15T15:14:42.759Z,14.35
2019-02-15T15:17:11.810Z,13.50
2019-02-15T15:19:40.761Z,15.37
2019-02-15T15:22:09.713Z,14.53
2019-02-15T15:24:38.802Z,13.03
2019-02-15T15:27:11.743Z,15.93
2019-02-15T15:29:40.708Z,13.48
2019-02-15T15:32:09.703Z,14.63
2019-02-15T15:34:40.933Z,13.97
2019-02-15T15:37:16.600Z,15.28
2019-02-15T15:39:45.167Z,13.80
2019-02-15T15:42:14.128Z,15.85
2019-02-15T15:44:43.094Z,15.72
2019-02-15T15:47:14.838Z,19.27
2019-02-15T15:49:47.150Z,13.85
2019-02-15T15:52:17.240Z,16.20
2019-02-15T15:54:46.226Z,13.55
2019-02-15T15:57:15.350Z,13.35
2019-02-15T15:59:47.197Z,14.85
2019-02-15T16:02:22.490Z,12.87
2019-02-15T16:05:04.403Z,14.90
2019-02-15T16:07:33.752Z,14.68
2019-02-15T16:10:09.066Z,18.37
2019-02-15T16:12:39.338Z,14.60
2019-02-15T16:15:11.145Z,17.07
2019-02-15T16:17:40.110Z,16.67
2019-02-15T16:20:15.666Z,18.57
2019-02-15T16:22:44.650Z,15.88
2019-02-15T16:25:13.608Z,15.83
2019-02-15T16:27:45.120Z,17.17
2019-02-15T16:30:16.519Z,15.80
2019-02-15T16:32:47.114Z,18.80
2019-02-15T16:35:16.095Z,16.27
2019-02-15T16:37:45.051Z,17.20
2019-02-15T16:40:14.696Z,21.77
2019-02-15T16:42:45.446Z,16.65
2019-02-15T16:45:16.224Z,17.37
2019-02-15T16:47:47.978Z,15.80
2019-02-15T16:50:17.054Z,17.20
2019-02-15T16:52:46.115Z,18.48
2019-02-15T16:55:17.179Z,19.33
2019-02-15T16:57:46.154Z,18.20
2019-02-15T17:00:16.157Z,21.80
2019-02-15T17:02:45.377Z,19.77
2019-02-15T17:05:14.691Z,18.40
2019-02-15T17:07:47.098Z,20.80
2019-02-15T17:10:16.073Z,20.32
2019-02-15T17:12:45.039Z,19.42
2019-02-15T17:15:16.466Z,19.98
2019-02-15T17:17:46.749Z,19.25
2019-02-15T17:20:15.946Z,20.92
2019-02-15T17:22:49.610Z,20.85
2019-02-15T17:25:18.635Z,19.17
2019-02-15T17:27:52.489Z,21.55
2019-02-15T17:30:20.010Z,21.57
2019-02-15T17:32:48.992Z,19.90
2019-02-15T17:35:18.027Z,20.37
2019-02-15T17:37:52.667Z,21.27
2019-02-15T17:40:23.915Z,19.23
2019-02-15T17:42:52.953Z,19.48
2019-02-15T17:45:21.957Z,20.68
2019-02-15T17:47:50.949Z,21.62
2019-02-15T17:50:21.728Z,20.82
2019-02-15T17:52:50.854Z,20.85
2019-02-15T17:55:23.174Z,21.93
2019-02-15T17:57:52.483Z,22.65
2019-02-15T18:00:23.215Z,22.35
2019-02-15T18:02:52.247Z,26.42
2019-02-15T18:05:22.793Z,22.27
2019-02-15T18:07:54.050Z,22.73
2019-02-15T18:10:31.037Z,24.50
2019-02-15T18:13:00.012Z,21.75
2019-02-15T18:15:30.607Z,24.55
2019-02-15T18:18:02.566Z,20.62
2019-02-15T18:20:31.686Z,24.65
2019-02-15T18:23:03.445Z,25.60
2019-02-15T18:25:38.089Z,23.10
2019-02-15T18:28:09.340Z,23.02
2019-02-15T18:30:39.554Z,23.70
2019-02-15T18:33:10.162Z,21.60
2019-02-15T18:35:47.620Z,21.93
2019-02-15T18:38:15.470Z,21.40
2019-02-15T18:40:45.582Z,23.42
2019-02-15T18:45:42.790Z,21.52
2019-02-15T18:48:13.370Z,19.07
2019-02-15T18:50:42.332Z,21.30
2019-02-15T18:53:11.308Z,22.40
2019-02-15T18:55:57.279Z,23.75
2019-02-15T18:58:26.954Z,23.05
2019-02-15T19:00:57.449Z,25.12
2019-02-15T19:03:26.433Z,25.68
2019-02-15T19:06:00.262Z,25.27
2019-02-15T19:08:29.313Z,23.70
2019-02-15T19:10:58.283Z,22.90
2019-02-15T19:13:30.196Z,23.98
2019-02-15T19:15:59.145Z,21.82
2019-02-15T19:18:28.143Z,24.35
2019-02-15T19:20:57.179Z,26.37
2019-02-15T19:23:28.402Z,24.07
2019-02-15T19:25:57.380Z,22.07
2019-02-15T19:28:28.013Z,23.18
2019-02-15T19:30:57.124Z,24.20
2019-02-15T19:33:29.930Z,21.95
2019-02-15T19:39:32.623Z,23.87
2019-02-15T19:42:01.585Z,22.52
2019-02-15T19:44:30.558Z,23.27
2019-02-15T19:46:59.573Z,22.17
2019-02-15T19:49:38.547Z,26.25
2019-02-15T19:52:05.789Z,21.62
2019-02-15T19:54:38.193Z,23.42
2019-02-15T19:57:07.168Z,23.55
2019-02-15T19:59:36.811Z,24.30
2019-02-15T20:02:05.849Z,22.90
2019-02-15T20:04:34.855Z,21.93
2019-02-15T20:07:04.693Z,22.27
2019-02-15T20:09:35.205Z,21.90
2019-02-15T20:12:07.130Z,26.52
2019-02-15T20:14:36.097Z,25.62
2019-02-15T20:17:05.094Z,24.25
2019-02-15T20:19:47.927Z,23.10
2019-02-15T20:22:08.111Z,24.45
2019-02-15T20:24:37.717Z,21.27
2019-02-15T20:27:07.273Z,23.32
2019-02-15T20:29:36.231Z,27.20
2019-02-15T20:32:05.201Z,26.90
2019-02-15T20:34:34.957Z,25.45
2019-02-15T20:37:04.007Z,23.85
2019-02-15T20:39:35.731Z,25.52
2019-02-15T20:42:04.789Z,22.65
2019-02-15T20:44:33.826Z,21.93
2019-02-15T20:47:05.125Z,24.65
2019-02-15T20:49:36.975Z,21.00
2019-02-15T20:52:05.951Z,23.70
2019-02-15T20:54:35.323Z,23.25
2019-02-15T20:57:04.637Z,24.55
2019-02-15T20:59:34.114Z,23.95
2019-02-15T21:02:03.119Z,22.87
2019-02-15T21:04:32.122Z,21.65
2019-02-15T21:07:02.327Z,26.87
2019-02-15T21:09:31.989Z,29.27
2019-02-15T21:12:00.953Z,22.70
2019-02-15T21:14:29.930Z,21.10
2019-02-15T21:16:59.050Z,23.85
2019-02-15T21:19:30.359Z,22.27
2019-02-15T21:22:04.248Z,21.07
2019-02-15T21:24:33.222Z,22.15
2019-02-15T21:27:02.178Z,20.08
2019-02-15T21:29:33.010Z,20.92
2019-02-15T21:32:03.542Z,22.58
2019-02-15T21:34:32.682Z,23.15
2019-02-15T21:37:01.704Z,23.60
2019-02-15T21:39:32.238Z,24.87
2019-02-15T21:42:01.431Z,22.30
2019-02-15T21:44:30.408Z,21.97
2019-02-15T21:47:00.704Z,25.55
2019-02-15T21:49:30.138Z,21.50
2019-02-15T21:51:59.270Z,23.85
2019-02-15T21:54:32.308Z,23.92
2019-02-15T21:57:01.257Z,22.45
2019-02-15T21:59:30.226Z,23.10
2019-02-15T22:01:59.191Z,22.77
2019-02-15T22:04:32.567Z,21.07
2019-02-15T22:07:03.162Z,22.70
2019-02-15T22:09:32.132Z,21.68
2019-02-15T22:12:01.130Z,20.77
2019-02-15T22:14:31.907Z,20.75
2019-02-15T22:17:00.867Z,24.47
2019-02-15T22:19:31.077Z,22.95
2019-02-15T22:22:00.083Z,24.60
2019-02-15T22:24:29.339Z,20.08
2019-02-15T22:27:01.774Z,23.38
2019-02-15T22:29:33.617Z,21.17
2019-02-15T22:32:23.755Z,23.90
2019-02-15T22:34:52.718Z,25.20
2019-02-15T22:37:22.813Z,24.35
2019-02-15T22:39:51.771Z,23.55
2019-02-15T22:42:20.753Z,24.37
2019-02-15T22:44:52.835Z,26.52
2019-02-15T22:47:21.821Z,24.40
2019-02-15T22:49:50.789Z,26.77
2019-02-15T22:52:26.079Z,27.90
2019-02-15T22:54:55.117Z,21.97
2019-02-15T22:57:26.535Z,24.82
2019-02-15T22:59:55.499Z,24.67
2019-02-15T23:02:24.533Z,24.55
2019-02-15T23:04:53.515Z,22.42
2019-02-15T23:07:24.182Z,22.98
2019-02-15T23:09:53.318Z,24.50
2019-02-15T23:12:22.352Z,22.90
2019-02-15T23:14:51.305Z,24.67
2019-02-15T23:17:20.355Z,22.67
2019-02-15T23:19:52.133Z,23.73
2019-02-15T23:22:23.206Z,21.65
2019-02-15T23:24:52.220Z,26.93
2019-02-15T23:27:23.512Z,23.10
2019-02-15T23:29:54.181Z,28.17
2019-02-15T23:32:22.527Z,23.45
2019-02-15T23:34:52.492Z,23.00
2019-02-15T23:37:23.080Z,27.48
2019-02-15T23:39:52.054Z,25.30
2019-02-15T23:42:22.601Z,22.52
2019-02-15T23:44:57.619Z,27.82
2019-02-15T23:47:26.694Z,23.87
2019-02-15T23:49:57.322Z,25.92
2019-02-15T23:52:26.319Z,25.30
2019-02-15T23:54:56.666Z,22.27
2019-02-15T23:57:25.739Z,26.02
2019-02-15T23:59:55.722Z,20.97
